createdAt,value
2023-04-22T00:02:14.567Z,101684.19
2023-04-22T00:04:46.715Z,101679.88
2023-04-22T00:07:15.280Z,101684.28
2023-04-22T00:09:43.827Z,101676.38
2023-04-22T00:12:12.597Z,101671.97
2023-04-22T00:14:40.751Z,101673.69
2023-04-22T00:17:08.915Z,101661.31
2023-04-22T00:19:37.776Z,101642.00
2023-04-22T00:22:07.659Z,101656.06
2023-04-22T00:24:35.752Z,101663.16
2023-04-22T00:27:03.994Z,101661.38
2023-04-22T00:29:32.108Z,101662.25
2023-04-22T00:32:00.675Z,101662.22
2023-04-22T00:34:28.837Z,101648.25
2023-04-22T00:37:00.558Z,101656.16
2023-04-22T00:39:30.303Z,101653.50
2023-04-22T00:41:59.139Z,101654.38
2023-04-22T00:44:28.478Z,101635.03
2023-04-22T00:46:57.437Z,101642.09
2023-04-22T00:49:28.415Z,101643.88
2023-04-22T00:51:59.240Z,101640.34
2023-04-22T00:54:30.081Z,101647.41
2023-04-22T00:57:01.133Z,101642.16
2023-04-22T00:59:29.312Z,101644.78
2023-04-22T01:01:58.048Z,101654.50
2023-04-22T01:04:27.366Z,101651.00
2023-04-22T01:06:55.714Z,101645.72
2023-04-22T01:09:23.896Z,101649.22
2023-04-22T01:11:52.381Z,101649.22
2023-04-22T01:14:22.201Z,101641.28
2023-04-22T01:16:51.280Z,101651.00
2023-04-22T01:19:19.872Z,101630.75
2023-04-22T01:21:49.634Z,101642.22
2023-04-22T01:24:19.181Z,101647.50
2023-04-22T01:26:48.060Z,101647.47
2023-04-22T01:29:16.369Z,101647.50
2023-04-22T01:31:45.049Z,101606.97
2023-04-22T01:34:13.634Z,101632.53
2023-04-22T01:36:41.929Z,101642.19
2023-04-22T01:39:10.527Z,101647.50
2023-04-22T01:41:40.234Z,101636.03
2023-04-22T01:44:08.279Z,101645.72
2023-04-22T01:46:36.561Z,101647.50
2023-04-22T01:49:04.932Z,101641.31
2023-04-22T01:51:33.271Z,101621.06
2023-04-22T01:54:04.068Z,101642.22
2023-04-22T01:56:32.202Z,101636.91
2023-04-22T01:59:01.755Z,101640.44
2023-04-22T02:01:29.888Z,101642.22
2023-04-22T02:03:58.342Z,101619.28
2023-04-22T02:06:27.536Z,101636.06
2023-04-22T02:08:55.682Z,101637.81
2023-04-22T02:11:23.925Z,101639.59
2023-04-22T02:13:52.269Z,101641.31
2023-04-22T02:16:21.770Z,101621.06
2023-04-22T02:18:50.111Z,101623.66
2023-04-22T02:21:18.303Z,101629.00
2023-04-22T02:23:46.478Z,101622.81
2023-04-22T02:26:14.655Z,101627.22
2023-04-22T02:28:43.001Z,101609.59
2023-04-22T02:31:11.522Z,101615.78
2023-04-22T02:33:41.153Z,101610.47
2023-04-22T02:36:09.627Z,101612.25
2023-04-22T02:38:37.961Z,101603.44
2023-04-22T02:41:06.338Z,101602.56
2023-04-22T02:43:34.662Z,101600.78
2023-04-22T02:46:02.794Z,101599.91
2023-04-22T02:48:34.458Z,101578.78
2023-04-22T02:51:04.058Z,101603.44
2023-04-22T02:53:32.065Z,101599.91
2023-04-22T02:56:00.200Z,101588.44
2023-04-22T02:58:28.580Z,101599.94
2023-04-22T03:00:58.355Z,101589.34
2023-04-22T03:03:27.110Z,101574.38
2023-04-22T03:05:55.590Z,101580.53
2023-04-22T03:08:26.307Z,101590.22
2023-04-22T03:10:54.651Z,101586.69
2023-04-22T03:13:22.640Z,101584.06
2023-04-22T03:15:51.028Z,101587.56
2023-04-22T03:18:19.585Z,101584.06
2023-04-22T03:20:47.759Z,101585.81
2023-04-22T03:23:15.806Z,101583.19
2023-04-22T03:25:45.310Z,101577.03
2023-04-22T03:28:13.549Z,101577.91
2023-04-22T03:30:41.853Z,101580.53
2023-04-22T03:33:10.509Z,101573.50
2023-04-22T03:35:38.733Z,101573.50
2023-04-22T03:38:06.772Z,101564.66
2023-04-22T03:40:34.883Z,101561.16
2023-04-22T03:43:04.694Z,101562.91
2023-04-22T03:45:33.000Z,101554.13
2023-04-22T03:48:01.432Z,101558.53
2023-04-22T03:50:29.515Z,101556.75
2023-04-22T03:52:57.994Z,101550.56
2023-04-22T03:55:26.418Z,101554.13
2023-04-22T03:57:54.580Z,101547.06
2023-04-22T04:00:24.078Z,101555.84
2023-04-22T04:02:52.417Z,101541.75
2023-04-22T04:05:21.369Z,101545.25
2023-04-22T04:07:49.556Z,101549.63
2023-04-22T04:10:17.708Z,101546.13
2023-04-22T04:12:45.799Z,101539.97
2023-04-22T04:15:14.773Z,101544.38
2023-04-22T04:17:44.755Z,101547.06
2023-04-22T04:20:13.619Z,101535.59
2023-04-22T04:22:41.733Z,101548.81
2023-04-22T04:25:10.396Z,101536.50
2023-04-22T04:27:39.548Z,101540.00
2023-04-22T04:30:09.791Z,101543.53
2023-04-22T04:32:38.158Z,101547.03
2023-04-22T04:35:08.929Z,101525.94
2023-04-22T04:37:37.247Z,101543.56
2023-04-22T04:40:07.802Z,101541.81
2023-04-22T04:42:36.125Z,101538.31
2023-04-22T04:45:04.604Z,101538.31
2023-04-22T04:47:34.163Z,101541.81
2023-04-22T04:50:04.572Z,101493.44
2023-04-22T04:52:34.127Z,101535.66
2023-04-22T04:55:02.231Z,101536.50
2023-04-22T04:57:30.366Z,101524.19
2023-04-22T04:59:58.508Z,101533.00
2023-04-22T05:02:27.226Z,101531.25
2023-04-22T05:04:55.876Z,101528.59
2023-04-22T05:07:23.960Z,101529.50
2023-04-22T05:09:53.588Z,101532.16
2023-04-22T05:12:21.923Z,101527.72
2023-04-22T05:14:50.020Z,101529.50
2023-04-22T05:17:18.578Z,101530.38
2023-04-22T05:19:46.901Z,101511.91
2023-04-22T05:22:14.932Z,101522.47
2023-04-22T05:24:43.047Z,101515.44
2023-04-22T05:27:12.955Z,101510.16
2023-04-22T05:29:41.251Z,101500.44
2023-04-22T05:32:09.929Z,101491.66
2023-04-22T05:34:38.261Z,101499.56
2023-04-22T05:37:06.927Z,101492.50
2023-04-22T05:39:35.259Z,101481.94
2023-04-22T05:42:03.563Z,101493.38
2023-04-22T05:44:33.013Z,101485.44
2023-04-22T05:47:01.209Z,101483.63
2023-04-22T05:49:29.615Z,101481.84
2023-04-22T05:51:58.015Z,101466.84
2023-04-22T05:54:26.244Z,101473.78
2023-04-22T05:56:54.389Z,101479.91
2023-04-22T05:59:22.422Z,101468.34
2023-04-22T06:01:52.300Z,101469.19
2023-04-22T06:04:21.135Z,101457.56
2023-04-22T06:06:50.010Z,101460.97
2023-04-22T06:09:18.261Z,101453.94
2023-04-22T06:11:46.400Z,101457.25
2023-04-22T06:14:14.574Z,101453.69
2023-04-22T06:16:42.948Z,101449.22
2023-04-22T06:19:12.367Z,101452.66
2023-04-22T06:21:42.239Z,101433.22
2023-04-22T06:24:11.090Z,101445.34
2023-04-22T06:26:39.629Z,101433.91
2023-04-22T06:29:08.047Z,101415.22
2023-04-22T06:31:36.245Z,101443.31
2023-04-22T06:34:05.205Z,101432.63
2023-04-22T06:36:37.674Z,101442.13
2023-04-22T06:39:06.408Z,101434.06
2023-04-22T06:41:34.479Z,101428.75
2023-04-22T06:44:02.667Z,101427.84
2023-04-22T06:46:30.899Z,101386.44
2023-04-22T06:48:58.936Z,101423.16
2023-04-22T06:51:26.959Z,101412.56
2023-04-22T06:53:58.455Z,101403.56
2023-04-22T06:56:26.776Z,101410.44
2023-04-22T06:58:54.801Z,101399.56
2023-04-22T07:01:23.046Z,101401.25
2023-04-22T07:03:51.299Z,101406.66
2023-04-22T07:06:19.464Z,101406.41
2023-04-22T07:08:47.749Z,101400.91
2023-04-22T07:11:17.334Z,101406.19
2023-04-22T07:13:45.400Z,101405.28
2023-04-22T07:16:14.197Z,101398.97
2023-04-22T07:18:42.349Z,101400.63
2023-04-22T07:21:10.468Z,101396.91
2023-04-22T07:23:38.784Z,101388.00
2023-04-22T07:26:07.413Z,101386.19
2023-04-22T07:28:36.993Z,101379.06
2023-04-22T07:31:05.494Z,101381.41
2023-04-22T07:33:33.682Z,101376.97
2023-04-22T07:36:01.853Z,101369.06
2023-04-22T07:38:30.147Z,101380.22
2023-04-22T07:40:58.347Z,101365.75
2023-04-22T07:43:26.836Z,101365.50
2023-04-22T07:45:56.896Z,101345.81
2023-04-22T07:48:25.521Z,101357.97
2023-04-22T07:50:53.606Z,101361.84
2023-04-22T07:53:22.103Z,101356.22
2023-04-22T07:55:50.757Z,101359.28
2023-04-22T07:58:18.833Z,101351.91
2023-04-22T08:00:46.961Z,101349.59
2023-04-22T08:03:16.940Z,101342.19
2023-04-22T08:05:45.527Z,101339.22
2023-04-22T08:08:13.541Z,101326.63
2023-04-22T08:10:41.788Z,101344.09
2023-04-22T08:13:10.228Z,101342.84
2023-04-22T08:15:38.585Z,101341.38
2023-04-22T08:18:07.021Z,101336.00
2023-04-22T08:20:36.771Z,101324.19
2023-04-22T08:23:07.101Z,101327.47
2023-04-22T08:25:36.422Z,101291.19
2023-04-22T08:28:04.786Z,101310.16
2023-04-22T08:30:32.958Z,101305.50
2023-04-22T08:33:01.179Z,101311.28
2023-04-22T08:35:29.440Z,101306.00
2023-04-22T08:37:58.937Z,101293.94
2023-04-22T08:40:27.154Z,101315.47
2023-04-22T08:42:56.331Z,101300.34
2023-04-22T08:45:24.848Z,101295.81
2023-04-22T08:47:54.932Z,101298.53
2023-04-22T08:50:23.492Z,101296.28
2023-04-22T08:52:51.645Z,101303.88
2023-04-22T08:55:22.772Z,101299.19
2023-04-22T08:57:51.703Z,101281.94
2023-04-22T09:00:20.941Z,101271.50
2023-04-22T09:02:50.760Z,101292.59
2023-04-22T09:05:20.304Z,101283.34
2023-04-22T09:07:48.487Z,101288.56
2023-04-22T09:10:16.998Z,101271.72
2023-04-22T09:12:48.417Z,101285.69
2023-04-22T09:15:16.574Z,101276.56
2023-04-22T09:17:45.046Z,101292.66
2023-04-22T09:20:15.499Z,101279.66
2023-04-22T09:22:45.790Z,101286.28
2023-04-22T09:25:18.310Z,101295.75
2023-04-22T09:27:51.863Z,101277.63
2023-04-22T09:30:25.376Z,101270.53
2023-04-22T09:32:55.734Z,101287.69
2023-04-22T09:35:33.454Z,101288.75
2023-04-22T09:38:03.419Z,101286.75
2023-04-22T09:40:32.867Z,101284.84
2023-04-22T09:43:07.950Z,101285.41
2023-04-22T09:45:37.189Z,101285.19
2023-04-22T09:48:09.298Z,101277.78
2023-04-22T09:50:38.390Z,101276.00
2023-04-22T09:53:08.380Z,101275.88
2023-04-22T09:55:40.114Z,101270.94
2023-04-22T09:58:11.479Z,101261.78
2023-04-22T10:00:47.279Z,101263.66
2023-04-22T10:03:16.164Z,101252.66
2023-04-22T10:05:46.173Z,101265.03
2023-04-22T10:08:16.217Z,101256.44
2023-04-22T10:10:45.308Z,101247.31
2023-04-22T10:13:15.234Z,101245.28
2023-04-22T10:15:45.801Z,101246.25
2023-04-22T10:18:17.943Z,101222.81
2023-04-22T10:20:47.749Z,101243.63
2023-04-22T10:23:19.258Z,101231.63
2023-04-22T10:25:51.511Z,101231.09
2023-04-22T10:28:23.310Z,101230.97
2023-04-22T10:30:51.796Z,101229.38
2023-04-22T10:33:40.100Z,101224.94
2023-04-22T10:36:16.860Z,101196.78
2023-04-22T10:39:19.094Z,101213.44
2023-04-22T10:41:56.907Z,101200.91
2023-04-22T10:44:31.623Z,101203.91
2023-04-22T10:47:03.074Z,101198.66
2023-04-22T10:49:35.098Z,101198.66
2023-04-22T10:52:04.239Z,101171.09
2023-04-22T10:54:58.745Z,101194.13
2023-04-22T10:57:37.922Z,101193.16
2023-04-22T11:00:23.292Z,101185.63
2023-04-22T11:02:55.350Z,101186.19
2023-04-22T11:05:26.239Z,101176.91
2023-04-22T11:07:55.812Z,101175.44
2023-04-22T11:10:43.011Z,101153.75
2023-04-22T11:13:15.093Z,101153.19
2023-04-22T11:15:46.586Z,101163.47
2023-04-22T11:18:20.734Z,101160.88
2023-04-22T11:20:50.784Z,101158.53
2023-04-22T11:23:23.634Z,101154.78
2023-04-22T11:25:56.473Z,101156.66
2023-04-22T11:28:24.885Z,101156.53
2023-04-22T11:30:55.142Z,101153.19
2023-04-22T11:33:23.274Z,101147.50
2023-04-22T11:35:52.223Z,101153.06
2023-04-22T11:38:20.640Z,101150.72
2023-04-22T11:40:49.132Z,101144.44
2023-04-22T11:43:18.711Z,101148.41
2023-04-22T11:45:47.106Z,101143.19
2023-04-22T11:48:16.895Z,101135.91
2023-04-22T11:50:45.569Z,101141.88
2023-04-22T11:53:18.103Z,101101.50
2023-04-22T11:55:48.201Z,101135.44
2023-04-22T11:58:18.131Z,101114.44
2023-04-22T12:00:47.875Z,101135.63
2023-04-22T12:03:19.344Z,101135.91
2023-04-22T12:05:49.172Z,101132.53
2023-04-22T12:08:18.775Z,101138.53
2023-04-22T12:10:49.173Z,101129.41
2023-04-22T12:13:21.679Z,101135.72
2023-04-22T12:15:54.576Z,101136.66
2023-04-22T12:18:31.908Z,101128.38
2023-04-22T12:21:09.583Z,101130.22
2023-04-22T12:23:43.614Z,101136.31
2023-04-22T12:26:12.182Z,101126.34
2023-04-22T12:28:41.355Z,101127.38
2023-04-22T12:31:10.115Z,101122.19
2023-04-22T12:33:40.093Z,101118.38
2023-04-22T12:36:08.516Z,101118.94
2023-04-22T12:38:36.806Z,101115.06
2023-04-22T12:41:06.409Z,101114.16
2023-04-22T12:43:35.434Z,101105.19
2023-04-22T12:46:04.238Z,101108.94
2023-04-22T12:48:32.757Z,101091.41
2023-04-22T12:51:02.403Z,101097.06
2023-04-22T12:53:30.922Z,101098.09
2023-04-22T12:55:59.724Z,101093.44
2023-04-22T12:58:28.047Z,101089.19
2023-04-22T13:00:56.279Z,101058.78
2023-04-22T13:03:24.702Z,101088.69
2023-04-22T13:05:53.911Z,101085.03
2023-04-22T13:08:23.657Z,101086.34
2023-04-22T13:10:51.877Z,101082.50
2023-04-22T13:13:19.946Z,101074.31
2023-04-22T13:15:50.680Z,101070.69
2023-04-22T13:18:18.935Z,101068.34
2023-04-22T13:20:47.769Z,101059.38
2023-04-22T13:23:17.420Z,101060.00
2023-04-22T13:25:47.794Z,101053.38
2023-04-22T13:28:16.071Z,101040.75
2023-04-22T13:30:44.181Z,101036.66
2023-04-22T13:33:12.318Z,101035.25
2023-04-22T13:35:40.952Z,101032.72
2023-04-22T13:38:09.038Z,101034.94
2023-04-22T13:40:37.229Z,101037.13
2023-04-22T13:43:06.785Z,101039.78
2023-04-22T13:45:34.899Z,101032.69
2023-04-22T13:48:03.226Z,101035.03
2023-04-22T13:50:31.336Z,101035.34
2023-04-22T13:52:59.521Z,101029.84
2023-04-22T13:55:27.886Z,101027.81
2023-04-22T13:57:55.972Z,101025.47
2023-04-22T14:00:25.909Z,101018.78
2023-04-22T14:02:54.162Z,101002.88
2023-04-22T14:05:22.297Z,101006.34
2023-04-22T14:07:50.427Z,101001.31
2023-04-22T14:10:20.473Z,100995.19
2023-04-22T14:12:48.708Z,101003.72
2023-04-22T14:15:16.914Z,101000.44
2023-04-22T14:17:49.428Z,100988.38
2023-04-22T14:20:17.841Z,100999.09
2023-04-22T14:22:46.313Z,100998.06
2023-04-22T14:25:14.761Z,100999.38
2023-04-22T14:27:43.001Z,100992.13
2023-04-22T14:30:12.192Z,100978.19
2023-04-22T14:32:40.341Z,100990.31
2023-04-22T14:35:10.509Z,100992.72
2023-04-22T14:37:40.180Z,100978.88
2023-04-22T14:40:09.787Z,100983.69
2023-04-22T14:42:37.960Z,100961.13
2023-04-22T14:45:06.873Z,100974.44
2023-04-22T14:47:35.003Z,100969.72
2023-04-22T14:50:03.356Z,100973.22
2023-04-22T14:52:34.209Z,100969.06
2023-04-22T14:55:15.498Z,100964.19
2023-04-22T14:57:51.350Z,100958.22
2023-04-22T15:00:19.840Z,100956.00
2023-04-22T15:02:48.165Z,100957.84
2023-04-22T15:05:16.622Z,100955.75
2023-04-22T15:07:46.080Z,100944.00
2023-04-22T15:10:14.404Z,100953.09
2023-04-22T15:12:42.611Z,100953.28
2023-04-22T15:15:13.278Z,100945.78
2023-04-22T15:17:41.959Z,100945.97
2023-04-22T15:20:11.572Z,100934.78
2023-04-22T15:22:41.202Z,100923.56
2023-04-22T15:25:11.849Z,100923.31
2023-04-22T15:27:40.260Z,100925.81
2023-04-22T15:30:11.114Z,100917.41
2023-04-22T15:32:40.199Z,100909.72
2023-04-22T15:35:09.139Z,100909.19
2023-04-22T15:37:37.420Z,100905.53
2023-04-22T15:40:07.758Z,100897.22
2023-04-22T15:42:37.266Z,100863.31
2023-04-22T15:45:06.318Z,100900.28
2023-04-22T15:47:35.428Z,100891.13
2023-04-22T15:50:06.756Z,100894.44
2023-04-22T15:52:35.154Z,100882.59
2023-04-22T15:55:03.486Z,100887.00
2023-04-22T15:57:34.950Z,100883.06
2023-04-22T16:00:11.926Z,100889.72
2023-04-22T16:02:42.111Z,100880.50
2023-04-22T16:05:11.551Z,100885.31
2023-04-22T16:07:40.374Z,100871.31
2023-04-22T16:10:10.236Z,100873.41
2023-04-22T16:12:39.525Z,100867.41
2023-04-22T16:15:11.164Z,100869.38
2023-04-22T16:17:39.558Z,100865.81
2023-04-22T16:20:09.670Z,100863.13
2023-04-22T16:22:37.892Z,100862.88
2023-04-22T16:25:06.996Z,100856.91
2023-04-22T16:27:35.624Z,100854.75
2023-04-22T16:30:03.755Z,100850.25
2023-04-22T16:32:33.316Z,100850.53
2023-04-22T16:35:01.604Z,100846.78
2023-04-22T16:37:29.678Z,100831.16
2023-04-22T16:39:58.025Z,100823.91
2023-04-22T16:42:26.680Z,100830.00
2023-04-22T16:44:54.758Z,100828.00
2023-04-22T16:47:22.906Z,100821.34
2023-04-22T16:49:52.632Z,100824.22
2023-04-22T16:52:20.973Z,100831.47
2023-04-22T16:54:51.548Z,100826.84
2023-04-22T16:57:20.025Z,100825.38
2023-04-22T16:59:48.111Z,100828.41
2023-04-22T17:02:16.378Z,100813.66
2023-04-22T17:04:44.705Z,100813.66
2023-04-22T17:07:14.214Z,100824.50
2023-04-22T17:09:42.598Z,100817.72
2023-04-22T17:12:11.320Z,100791.09
2023-04-22T17:14:39.582Z,100810.41
2023-04-22T17:17:07.832Z,100799.69
2023-04-22T17:19:36.589Z,100802.53
2023-04-22T17:22:06.054Z,100805.25
2023-04-22T17:24:36.442Z,100801.22
2023-04-22T17:27:04.908Z,100788.00
2023-04-22T17:29:32.918Z,100778.06
2023-04-22T17:32:01.134Z,100778.63
2023-04-22T17:34:29.564Z,100789.03
2023-04-22T17:36:59.671Z,100756.56
2023-04-22T17:39:28.045Z,100785.59
2023-04-22T17:41:58.584Z,100771.53
2023-04-22T17:44:26.791Z,100777.81
2023-04-22T17:46:54.944Z,100769.63
2023-04-22T17:49:23.812Z,100763.59
2023-04-22T17:51:52.035Z,100762.00
2023-04-22T17:54:20.691Z,100752.44
2023-04-22T17:56:49.007Z,100754.84
2023-04-22T17:59:18.904Z,100756.09
2023-04-22T18:01:47.229Z,100745.25
2023-04-22T18:04:15.533Z,100752.09
2023-04-22T18:06:44.171Z,100756.53
2023-04-22T18:09:12.251Z,100750.44
2023-04-22T18:11:40.690Z,100751.59
2023-04-22T18:14:09.114Z,100753.53
2023-04-22T18:16:38.644Z,100758.44
2023-04-22T18:19:07.858Z,100759.44
2023-04-22T18:21:36.955Z,100758.22
2023-04-22T18:24:08.573Z,100762.75
2023-04-22T18:26:36.606Z,100762.81
2023-04-22T18:29:05.727Z,100767.53
2023-04-22T18:31:34.247Z,100760.97
2023-04-22T18:34:04.266Z,100754.16
2023-04-22T18:36:32.491Z,100750.06
2023-04-22T18:39:04.115Z,100748.72
2023-04-22T18:41:32.225Z,100754.78
2023-04-22T18:44:00.243Z,100751.41
2023-04-22T18:46:28.587Z,100755.28
2023-04-22T18:48:56.903Z,100729.06
2023-04-22T18:51:27.703Z,100753.53
2023-04-22T18:53:56.326Z,100748.53
2023-04-22T18:56:24.756Z,100747.63
2023-04-22T18:58:53.000Z,100718.75
2023-04-22T19:01:21.270Z,100743.56
2023-04-22T19:03:49.903Z,100746.13
2023-04-22T19:06:17.947Z,100750.16
2023-04-22T19:08:48.909Z,100751.16
2023-04-22T19:11:17.610Z,100753.88
2023-04-22T19:13:46.439Z,100746.81
2023-04-22T19:16:14.866Z,100732.91
2023-04-22T19:18:44.190Z,100714.16
2023-04-22T19:21:12.356Z,100747.53
2023-04-22T19:23:40.869Z,100753.84
2023-04-22T19:26:10.748Z,100749.50
2023-04-22T19:28:39.007Z,100750.41
2023-04-22T19:31:07.700Z,100749.97
2023-04-22T19:33:36.176Z,100754.72
2023-04-22T19:36:04.313Z,100753.25
2023-04-22T19:38:32.516Z,100751.44
2023-04-22T19:41:01.229Z,100746.94
2023-04-22T19:43:30.985Z,100740.00
2023-04-22T19:45:59.463Z,100745.53
2023-04-22T19:48:28.687Z,100727.94
2023-04-22T19:50:57.694Z,100725.75
2023-04-22T19:53:26.415Z,100722.41
2023-04-22T19:55:54.545Z,100720.72
2023-04-22T19:58:24.528Z,100682.31
2023-04-22T20:00:54.935Z,100720.44
2023-04-22T20:03:23.911Z,100720.19
2023-04-22T20:05:52.726Z,100699.09
2023-04-22T20:08:21.358Z,100707.66
2023-04-22T20:10:50.500Z,100706.81
2023-04-22T20:13:19.256Z,100705.13
2023-04-22T20:15:47.779Z,100700.22
2023-04-22T20:18:17.849Z,100694.81
2023-04-22T20:20:48.259Z,100678.94
2023-04-22T20:23:18.769Z,100680.84
2023-04-22T20:25:47.695Z,100681.66
2023-04-22T20:28:16.189Z,100683.34
2023-04-22T20:30:44.851Z,100674.66
2023-04-22T20:33:16.664Z,100650.22
2023-04-22T20:35:48.086Z,100671.53
2023-04-22T20:38:19.451Z,100659.69
2023-04-22T20:40:48.843Z,100651.09
2023-04-22T20:43:17.042Z,100655.16
2023-04-22T20:45:45.185Z,100658.69
2023-04-22T20:48:16.092Z,100656.22
2023-04-22T20:50:44.802Z,100645.91
2023-04-22T20:53:14.635Z,100623.22
2023-04-22T20:55:42.944Z,100640.91
2023-04-22T20:58:11.260Z,100616.34
2023-04-22T21:00:39.642Z,100628.28
2023-04-22T21:03:09.856Z,100638.84
2023-04-22T21:05:41.473Z,100627.47
2023-04-22T21:08:23.281Z,100629.94
2023-04-22T21:10:52.826Z,100629.78
2023-04-22T21:13:21.410Z,100616.63
2023-04-22T21:15:55.782Z,100623.06
2023-04-22T21:18:26.311Z,100551.00
2023-04-22T21:20:54.932Z,100628.06
2023-04-22T21:23:25.878Z,100633.50
2023-04-22T21:25:56.561Z,100609.06
2023-04-22T21:28:25.522Z,100628.19
2023-04-22T21:30:54.505Z,100621.94
2023-04-22T21:33:23.922Z,100627.81
2023-04-22T21:35:52.082Z,100613.06
2023-04-22T21:38:20.912Z,100608.72
2023-04-22T21:40:50.363Z,100611.91
2023-04-22T21:43:18.516Z,100615.44
2023-04-22T21:45:47.037Z,100610.22
2023-04-22T21:48:15.107Z,100594.63
2023-04-22T21:50:43.300Z,100603.41
2023-04-22T21:53:12.047Z,100603.16
2023-04-22T21:55:40.284Z,100612.56
2023-04-22T21:58:09.768Z,100611.41
2023-04-22T22:00:38.880Z,100601.31
2023-04-22T22:03:07.369Z,100599.66
2023-04-22T22:05:36.160Z,100578.91
2023-04-22T22:08:04.413Z,100586.72
2023-04-22T22:10:32.714Z,100592.63
2023-04-22T22:13:00.905Z,100586.59
2023-04-22T22:15:30.650Z,100594.41
2023-04-22T22:17:59.478Z,100584.75
2023-04-22T22:20:29.731Z,100593.53
2023-04-22T22:22:58.261Z,100594.59
2023-04-22T22:25:26.953Z,100594.75
2023-04-22T22:27:55.005Z,100586.97
2023-04-22T22:30:23.252Z,100588.91
2023-04-22T22:32:52.817Z,100597.47
2023-04-22T22:35:21.289Z,100596.38
2023-04-22T22:37:49.564Z,100588.66
2023-04-22T22:40:17.846Z,100586.72
2023-04-22T22:42:45.933Z,100576.16
2023-04-22T22:45:14.680Z,100539.59
2023-04-22T22:47:42.939Z,100572.69
2023-04-22T22:50:12.809Z,100558.44
2023-04-22T22:52:41.385Z,100561.09
2023-04-22T22:55:10.161Z,100548.59
2023-04-22T22:57:38.427Z,100548.94
2023-04-22T23:00:09.426Z,100547.09
2023-04-22T23:02:37.936Z,100552.41
2023-04-22T23:05:09.549Z,100543.63
2023-04-22T23:07:40.564Z,100542.00
2023-04-22T23:10:10.036Z,100529.41
2023-04-22T23:12:38.062Z,100545.03
2023-04-22T23:15:07.757Z,100531.13
2023-04-22T23:17:36.777Z,100523.75
2023-04-22T23:20:07.383Z,100528.19
2023-04-22T23:22:37.684Z,100515.06
2023-04-22T23:25:08.780Z,100516.22
2023-04-22T23:27:37.394Z,100506.91
2023-04-22T23:30:06.813Z,100506.84
2023-04-22T23:32:39.072Z,100491.56
2023-04-22T23:35:09.319Z,100498.22
2023-04-22T23:37:38.954Z,100499.00
2023-04-22T23:40:10.545Z,100490.94
2023-04-22T23:42:38.586Z,100490.94
2023-04-22T23:45:07.405Z,100489.66
2023-04-22T23:47:35.705Z,100485.19
2023-04-22T23:50:04.440Z,100471.75
2023-04-22T23:52:32.511Z,100459.69
2023-04-22T23:55:01.169Z,100474.03
2023-04-22T23:57:31.475Z,100461.38
2023-04-22T23:59:59.993Z,100443.63
